createdAt,value
2022-10-23T00:01:37.579Z,10.85
2022-10-23T00:04:17.322Z,10.86
2022-10-23T00:05:28.351Z,10.75
2022-10-23T00:06:37.463Z,10.77
2022-10-23T00:09:10.805Z,10.90
2022-10-23T00:11:37.297Z,10.87
2022-10-23T00:12:47.275Z,10.77
2022-10-23T00:13:59.868Z,10.74
2022-10-23T00:16:27.477Z,10.84
2022-10-23T00:17:36.090Z,10.73
2022-10-23T00:18:45.680Z,10.70
2022-10-23T00:21:29.416Z,10.77
2022-10-23T00:23:56.312Z,10.77
2022-10-23T00:26:22.749Z,10.85
2022-10-23T00:28:51.977Z,11.04
2022-10-23T00:31:20.566Z,11.28
2022-10-23T00:33:45.690Z,11.46
2022-10-23T00:36:13.632Z,11.49
2022-10-23T00:38:42.423Z,11.41
2022-10-23T00:39:51.353Z,11.28
2022-10-23T00:41:01.126Z,11.26
2022-10-23T00:42:18.091Z,11.22
2022-10-23T00:46:21.086Z,11.20
2022-10-23T00:48:45.615Z,11.17
2022-10-23T00:51:10.386Z,11.13
2022-10-23T00:52:20.384Z,11.04
2022-10-23T00:53:30.421Z,11.00
2022-10-23T00:55:59.227Z,11.14
2022-10-23T00:58:29.462Z,11.22
2022-10-23T01:00:57.056Z,11.37
2022-10-23T01:02:06.493Z,11.38
2022-10-23T01:03:18.579Z,11.45
2022-10-23T01:05:54.261Z,11.74
2022-10-23T01:08:53.016Z,11.74
2022-10-23T01:11:35.872Z,11.65
2022-10-23T01:14:33.321Z,11.52
2022-10-23T01:17:26.168Z,11.42
2022-10-23T01:20:27.640Z,11.30
2022-10-23T01:23:26.075Z,11.19
2022-10-23T01:26:29.990Z,11.12
2022-10-23T01:29:15.752Z,11.02
2022-10-23T01:32:00.867Z,10.95
2022-10-23T01:34:37.645Z,10.87
2022-10-23T01:37:11.733Z,10.90
2022-10-23T01:39:44.690Z,11.09
2022-10-23T01:42:30.763Z,11.27
2022-10-23T01:45:22.583Z,11.49
2022-10-23T01:47:52.184Z,11.57
2022-10-23T01:49:04.416Z,11.43
2022-10-23T01:50:15.517Z,11.37
2022-10-23T01:51:28.524Z,11.32
2022-10-23T01:53:58.855Z,11.30
2022-10-23T01:55:12.451Z,11.15
2022-10-23T01:57:45.140Z,11.18
2022-10-23T02:00:16.050Z,11.11
2022-10-23T02:01:36.478Z,10.99
2022-10-23T02:04:09.160Z,11.20
2022-10-23T02:06:38.415Z,11.31
2022-10-23T02:09:04.797Z,11.34
2022-10-23T02:11:38.864Z,11.25
2022-10-23T02:14:45.504Z,11.15
2022-10-23T02:16:08.417Z,10.98
2022-10-23T02:19:03.587Z,10.91
2022-10-23T02:22:02.646Z,10.86
2022-10-23T02:24:41.149Z,10.97
2022-10-23T02:27:40.022Z,11.21
2022-10-23T02:30:18.932Z,11.52
2022-10-23T02:32:51.588Z,11.80
2022-10-23T02:34:02.386Z,11.72
2022-10-23T02:36:29.329Z,11.71
2022-10-23T02:38:56.273Z,11.55
2022-10-23T02:40:08.102Z,11.38
2022-10-23T02:43:00.191Z,11.26
2022-10-23T02:46:14.131Z,11.09
2022-10-23T02:49:28.284Z,11.01
2022-10-23T02:52:08.908Z,10.93
2022-10-23T02:53:33.325Z,10.83
2022-10-23T02:56:30.516Z,11.08
2022-10-23T02:59:04.350Z,11.34
2022-10-23T03:00:17.785Z,11.29
2022-10-23T03:04:16.291Z,11.62
2022-10-23T03:06:49.055Z,11.57
2022-10-23T03:07:59.530Z,11.44
2022-10-23T03:10:25.853Z,11.44
2022-10-23T03:11:36.262Z,11.30
2022-10-23T03:14:03.152Z,11.37
2022-10-23T03:15:14.108Z,11.22
2022-10-23T03:16:25.134Z,11.19
2022-10-23T03:17:36.544Z,11.17
2022-10-23T03:20:01.259Z,11.33
2022-10-23T03:22:47.227Z,11.38
2022-10-23T03:25:12.977Z,11.33
2022-10-23T03:27:38.139Z,11.18
2022-10-23T03:28:48.336Z,11.06
2022-10-23T03:31:13.909Z,11.28
2022-10-23T03:33:39.202Z,11.50
2022-10-23T03:36:07.077Z,11.72
2022-10-23T03:38:33.302Z,11.82
2022-10-23T03:40:57.377Z,11.92
2022-10-23T03:43:22.067Z,11.94
2022-10-23T03:44:35.076Z,11.77
2022-10-23T03:46:58.793Z,11.70
2022-10-23T03:49:25.171Z,11.56
2022-10-23T03:51:52.188Z,11.47
2022-10-23T03:54:22.323Z,11.46
2022-10-23T03:56:46.929Z,11.50
2022-10-23T03:59:11.518Z,11.56
2022-10-23T04:00:22.153Z,11.52
2022-10-23T04:02:47.826Z,11.79
2022-10-23T04:03:58.331Z,11.71
2022-10-23T04:06:24.886Z,11.99
2022-10-23T04:08:53.451Z,12.00
2022-10-23T04:11:18.748Z,11.91
2022-10-23T04:13:45.084Z,11.78
2022-10-23T04:16:17.666Z,11.69
2022-10-23T04:18:40.885Z,11.48
2022-10-23T04:19:51.189Z,11.43
2022-10-23T04:22:17.366Z,11.39
2022-10-23T04:24:46.151Z,11.45
2022-10-23T04:27:13.849Z,11.53
2022-10-23T04:29:37.387Z,11.70
2022-10-23T04:32:01.958Z,11.74
2022-10-23T04:33:11.729Z,11.63
2022-10-23T04:35:36.550Z,11.85
2022-10-23T04:38:02.958Z,12.01
2022-10-23T04:40:28.219Z,11.93
2022-10-23T04:42:54.277Z,11.74
2022-10-23T04:45:19.486Z,11.52
2022-10-23T04:46:29.428Z,11.35
2022-10-23T04:48:52.988Z,11.34
2022-10-23T04:51:20.528Z,11.36
2022-10-23T04:53:49.175Z,11.53
2022-10-23T04:57:10.241Z,11.84
2022-10-23T04:59:41.020Z,12.07
2022-10-23T05:02:06.263Z,12.27
2022-10-23T05:04:31.020Z,12.44
2022-10-23T05:07:49.725Z,12.35
2022-10-23T05:10:33.911Z,12.22
2022-10-23T05:13:00.471Z,12.08
2022-10-23T05:15:25.890Z,12.02
2022-10-23T05:19:26.419Z,11.94
2022-10-23T05:22:15.864Z,11.98
2022-10-23T05:24:50.593Z,11.98
2022-10-23T05:27:20.327Z,11.81
2022-10-23T05:29:48.223Z,11.75
2022-10-23T05:32:18.953Z,11.67
2022-10-23T05:34:45.547Z,11.70
2022-10-23T05:37:15.424Z,11.63
2022-10-23T05:39:42.201Z,11.54
2022-10-23T05:42:14.071Z,11.63
2022-10-23T05:43:27.217Z,11.53
2022-10-23T05:45:59.708Z,11.75
2022-10-23T05:48:45.139Z,11.87
2022-10-23T05:51:56.212Z,12.01
2022-10-23T05:54:29.704Z,12.00
2022-10-23T05:56:56.078Z,12.14
2022-10-23T05:58:07.410Z,12.03
2022-10-23T06:01:30.663Z,12.10
2022-10-23T06:04:00.294Z,12.11
2022-10-23T06:06:26.237Z,12.20
2022-10-23T06:08:50.730Z,12.24
2022-10-23T06:11:17.055Z,12.39
2022-10-23T06:13:46.676Z,12.54
2022-10-23T06:17:36.543Z,12.72
2022-10-23T06:20:03.699Z,12.82
2022-10-23T06:22:30.908Z,12.81
2022-10-23T06:24:59.383Z,12.71
2022-10-23T06:27:34.866Z,12.60
2022-10-23T06:30:07.064Z,12.52
2022-10-23T06:32:33.780Z,12.37
2022-10-23T06:35:07.242Z,12.27
2022-10-23T06:37:34.177Z,12.24
2022-10-23T06:40:34.906Z,12.15
2022-10-23T06:43:01.480Z,12.22
2022-10-23T06:45:01.145Z,12.18
2022-10-23T06:48:17.207Z,12.54
2022-10-23T06:50:52.517Z,12.71
2022-10-23T06:53:18.180Z,12.68
2022-10-23T06:55:50.064Z,12.54
2022-10-23T06:56:59.623Z,12.38
2022-10-23T06:59:28.095Z,12.34
2022-10-23T07:03:05.593Z,11.90
2022-10-23T07:04:15.393Z,11.89
2022-10-23T07:05:25.239Z,11.89
2022-10-23T07:06:35.411Z,11.89
2022-10-23T07:08:59.683Z,12.07
2022-10-23T07:12:25.075Z,12.32
2022-10-23T07:14:52.954Z,12.49
2022-10-23T07:17:30.337Z,12.48
2022-10-23T07:19:57.116Z,12.33
2022-10-23T07:22:22.934Z,12.47
2022-10-23T07:25:01.069Z,12.62
2022-10-23T07:27:31.508Z,12.73
2022-10-23T07:29:59.912Z,12.77
2022-10-23T07:32:27.806Z,12.68
2022-10-23T07:35:12.778Z,12.59
2022-10-23T07:37:40.409Z,12.53
2022-10-23T07:40:08.420Z,12.35
2022-10-23T07:41:19.765Z,12.31
2022-10-23T07:43:43.355Z,12.52
2022-10-23T07:46:26.473Z,12.61
2022-10-23T07:48:50.525Z,12.74
2022-10-23T07:51:20.491Z,12.84
2022-10-23T07:53:46.465Z,12.87
2022-10-23T07:57:01.904Z,12.95
2022-10-23T08:00:21.017Z,13.00
2022-10-23T08:02:57.488Z,12.92
2022-10-23T08:05:23.578Z,12.86
2022-10-23T08:07:53.078Z,12.60
2022-10-23T08:10:19.547Z,12.58
2022-10-23T08:12:46.143Z,12.72
2022-10-23T08:15:12.350Z,12.87
2022-10-23T08:17:40.943Z,13.06
2022-10-23T08:20:13.375Z,13.27
2022-10-23T08:22:40.259Z,13.37
2022-10-23T08:25:11.485Z,13.43
2022-10-23T08:27:37.701Z,13.34
2022-10-23T08:30:03.010Z,13.22
2022-10-23T08:32:32.182Z,13.10
2022-10-23T08:34:58.214Z,13.20
2022-10-23T08:37:36.398Z,13.38
2022-10-23T08:40:01.505Z,13.51
2022-10-23T08:43:14.210Z,13.70
2022-10-23T08:46:01.271Z,13.86
2022-10-23T08:48:43.177Z,13.95
2022-10-23T08:51:58.705Z,13.73
2022-10-23T08:55:13.173Z,13.49
2022-10-23T08:58:15.466Z,13.28
2022-10-23T09:00:49.817Z,13.30
2022-10-23T09:03:18.246Z,13.37
2022-10-23T09:06:07.508Z,13.46
2022-10-23T09:08:49.811Z,13.60
2022-10-23T09:11:36.488Z,13.70
2022-10-23T09:12:46.527Z,13.66
2022-10-23T09:15:34.506Z,13.86
2022-10-23T09:18:19.700Z,13.94
2022-10-23T09:20:47.929Z,14.03
2022-10-23T09:21:57.530Z,13.94
2022-10-23T09:24:45.610Z,14.12
2022-10-23T09:27:17.579Z,14.21
2022-10-23T09:29:54.280Z,14.11
2022-10-23T09:32:33.992Z,14.11
2022-10-23T09:33:58.239Z,14.00
2022-10-23T09:36:27.476Z,13.98
2022-10-23T09:39:00.683Z,14.08
2022-10-23T09:40:16.647Z,14.00
2022-10-23T09:43:18.101Z,14.24
2022-10-23T09:45:48.961Z,14.36
2022-10-23T09:47:12.042Z,14.30
2022-10-23T09:48:21.687Z,14.29
2022-10-23T09:50:54.476Z,14.41
2022-10-23T09:53:35.511Z,14.28
2022-10-23T09:54:49.154Z,14.09
2022-10-23T09:57:27.797Z,13.96
2022-10-23T10:00:16.580Z,13.95
2022-10-23T10:02:46.377Z,14.05
2022-10-23T10:05:25.897Z,14.19
2022-10-23T10:08:05.036Z,14.26
2022-10-23T10:10:35.098Z,14.34
2022-10-23T10:11:53.691Z,14.25
2022-10-23T10:15:58.792Z,14.44
2022-10-23T10:17:36.502Z,14.35
2022-10-23T10:20:26.359Z,14.57
2022-10-23T10:23:27.900Z,14.71
2022-10-23T10:24:41.944Z,14.61
2022-10-23T10:27:40.574Z,14.80
2022-10-23T10:32:03.048Z,14.67
2022-10-23T10:34:57.310Z,14.40
2022-10-23T10:37:55.753Z,14.17
2022-10-23T10:40:32.135Z,14.20
2022-10-23T10:43:36.686Z,14.29
2022-10-23T10:44:52.394Z,14.21
2022-10-23T10:52:06.437Z,14.57
2022-10-23T10:54:50.472Z,14.59
2022-10-23T10:59:05.634Z,14.70
2022-10-23T11:01:50.530Z,14.77
2022-10-23T11:03:19.014Z,14.67
2022-10-23T11:06:12.207Z,14.57
2022-10-23T11:08:56.154Z,14.62
2022-10-23T11:11:21.836Z,14.69
2022-10-23T11:12:30.752Z,14.61
2022-10-23T11:14:58.105Z,14.73
2022-10-23T11:17:39.748Z,14.75
2022-10-23T11:20:30.337Z,14.76
2022-10-23T11:23:13.853Z,14.86
2022-10-23T11:28:08.569Z,14.83
2022-10-23T11:31:35.311Z,14.86
2022-10-23T11:34:23.960Z,14.93
2022-10-23T11:37:21.332Z,14.76
2022-10-23T11:40:09.967Z,14.52
2022-10-23T11:41:25.309Z,14.35
2022-10-23T11:44:03.709Z,14.49
2022-10-23T11:47:04.043Z,14.52
2022-10-23T11:50:12.244Z,14.58
2022-10-23T11:53:13.626Z,14.70
2022-10-23T11:54:21.332Z,14.51
2022-10-23T11:55:32.703Z,14.58
2022-10-23T11:59:52.224Z,14.72
2022-10-23T12:02:38.402Z,14.79
2022-10-23T12:05:25.411Z,14.94
2022-10-23T12:09:54.320Z,15.00
2022-10-23T12:12:31.316Z,15.15
2022-10-23T12:13:47.096Z,15.01
2022-10-23T12:15:09.001Z,14.97
2022-10-23T12:17:47.144Z,14.70
2022-10-23T12:20:27.763Z,14.25
2022-10-23T12:21:39.453Z,14.19
2022-10-23T12:23:16.930Z,14.12
2022-10-23T12:26:22.211Z,14.17
2022-10-23T12:29:08.372Z,14.29
2022-10-23T12:31:48.164Z,14.31
2022-10-23T12:35:03.273Z,14.42
2022-10-23T12:38:10.164Z,14.51
2022-10-23T12:39:31.078Z,14.46
2022-10-23T12:41:56.569Z,14.68
2022-10-23T12:44:34.071Z,14.50
2022-10-23T12:45:44.487Z,14.35
2022-10-23T12:46:56.255Z,14.28
2022-10-23T12:48:06.959Z,14.15
2022-10-23T12:50:33.923Z,14.15
2022-10-23T12:51:45.377Z,14.04
2022-10-23T12:54:21.497Z,14.30
2022-10-23T12:56:49.707Z,14.27
2022-10-23T12:58:00.444Z,14.27
2022-10-23T13:00:25.952Z,14.44
2022-10-23T13:03:02.824Z,14.48
2022-10-23T13:04:16.395Z,14.40
2022-10-23T13:06:41.601Z,14.37
2022-10-23T13:07:51.970Z,14.15
2022-10-23T13:10:20.987Z,14.10
2022-10-23T13:13:02.087Z,14.01
2022-10-23T13:17:09.167Z,13.85
2022-10-23T13:19:34.800Z,13.98
2022-10-23T13:20:53.863Z,13.96
2022-10-23T13:23:34.125Z,14.29
2022-10-23T13:26:01.616Z,14.35
2022-10-23T13:28:50.002Z,14.33
2022-10-23T13:31:17.739Z,14.15
2022-10-23T13:34:08.274Z,13.96
2022-10-23T13:36:39.111Z,13.86
2022-10-23T13:37:49.288Z,13.71
2022-10-23T13:39:11.780Z,13.66
2022-10-23T13:41:45.742Z,13.79
2022-10-23T13:45:30.307Z,13.92
2022-10-23T13:46:39.475Z,13.87
2022-10-23T13:49:03.605Z,14.07
2022-10-23T13:50:14.624Z,14.02
2022-10-23T13:51:29.963Z,14.06
2022-10-23T13:52:39.773Z,14.09
2022-10-23T13:53:49.907Z,14.05
2022-10-23T13:54:59.614Z,13.90
2022-10-23T13:56:11.950Z,13.83
2022-10-23T13:58:35.467Z,13.79
2022-10-23T13:59:45.208Z,13.63
2022-10-23T14:00:54.407Z,13.46
2022-10-23T14:03:22.430Z,13.39
2022-10-23T14:04:31.050Z,13.37
2022-10-23T14:05:40.747Z,13.34
2022-10-23T14:08:05.550Z,13.64
2022-10-23T14:10:33.886Z,13.79
2022-10-23T14:12:59.353Z,13.84
2022-10-23T14:15:23.863Z,13.72
2022-10-23T14:17:49.992Z,13.53
2022-10-23T14:20:13.852Z,13.37
2022-10-23T14:22:39.368Z,13.19
2022-10-23T14:25:05.881Z,13.12
2022-10-23T14:27:36.333Z,13.07
2022-10-23T14:30:01.118Z,13.02
2022-10-23T14:32:32.605Z,12.94
2022-10-23T14:34:57.404Z,12.78
2022-10-23T14:37:22.889Z,12.76
2022-10-23T14:38:31.667Z,12.60
2022-10-23T14:39:44.165Z,12.62
2022-10-23T14:42:08.704Z,12.64
2022-10-23T14:43:17.428Z,12.49
2022-10-23T14:44:27.286Z,12.48
2022-10-23T14:45:37.748Z,12.59
2022-10-23T14:46:46.461Z,12.67
2022-10-23T14:47:56.003Z,12.68
2022-10-23T14:50:21.333Z,12.87
2022-10-23T14:52:45.427Z,12.95
2022-10-23T14:55:20.072Z,12.90
2022-10-23T14:57:47.722Z,12.81
2022-10-23T15:00:15.565Z,12.78
2022-10-23T15:02:39.424Z,12.71
2022-10-23T15:05:06.410Z,12.67
2022-10-23T15:07:31.605Z,12.58
2022-10-23T15:09:57.196Z,12.69
2022-10-23T15:11:10.329Z,12.65
2022-10-23T15:12:19.026Z,12.74
2022-10-23T15:14:43.127Z,13.03
2022-10-23T15:16:05.844Z,12.89
2022-10-23T15:18:50.216Z,13.02
2022-10-23T15:21:19.582Z,12.96
2022-10-23T15:23:45.895Z,12.88
2022-10-23T15:26:18.995Z,12.87
2022-10-23T15:28:43.678Z,12.81
2022-10-23T15:32:28.251Z,12.72
2022-10-23T15:35:13.282Z,12.65
2022-10-23T15:36:23.019Z,12.49
2022-10-23T15:38:49.546Z,12.56
2022-10-23T15:41:16.901Z,12.65
2022-10-23T15:43:42.176Z,12.75
2022-10-23T15:44:51.997Z,12.70
2022-10-23T15:47:16.210Z,12.96
2022-10-23T15:49:40.889Z,12.97
2022-10-23T15:52:05.930Z,12.91
2022-10-23T15:54:32.801Z,12.87
2022-10-23T15:56:57.275Z,12.81
2022-10-23T15:59:23.288Z,12.70
2022-10-23T16:01:50.260Z,12.68
2022-10-23T16:04:15.722Z,12.61
2022-10-23T16:06:41.571Z,12.66
2022-10-23T16:09:07.287Z,12.82
2022-10-23T16:11:35.519Z,12.86
2022-10-23T16:14:04.615Z,12.78
2022-10-23T16:16:48.352Z,12.72
2022-10-23T16:19:13.456Z,12.67
2022-10-23T16:21:38.115Z,12.64
2022-10-23T16:24:06.662Z,12.64
2022-10-23T16:25:16.618Z,12.61
2022-10-23T16:27:42.174Z,12.89
2022-10-23T16:30:23.918Z,13.08
2022-10-23T16:32:50.261Z,13.10
2022-10-23T16:35:17.142Z,13.02
2022-10-23T16:37:44.309Z,12.92
2022-10-23T16:40:12.276Z,12.84
2022-10-23T16:42:57.234Z,12.72
2022-10-23T16:45:24.093Z,12.61
2022-10-23T16:47:50.591Z,12.59
2022-10-23T16:50:16.208Z,12.65
2022-10-23T16:52:42.358Z,12.75
2022-10-23T16:55:09.056Z,12.95
2022-10-23T16:57:37.279Z,13.02
2022-10-23T17:00:02.692Z,12.96
2022-10-23T17:02:29.579Z,12.91
2022-10-23T17:04:58.682Z,12.83
2022-10-23T17:07:26.655Z,12.81
2022-10-23T17:09:53.484Z,12.74
2022-10-23T17:12:19.891Z,12.76
2022-10-23T17:15:06.311Z,12.86
2022-10-23T17:17:37.159Z,13.09
2022-10-23T17:20:03.655Z,13.12
2022-10-23T17:22:31.495Z,12.98
2022-10-23T17:24:58.322Z,12.95
2022-10-23T17:27:23.661Z,12.89
2022-10-23T17:29:49.150Z,12.86
2022-10-23T17:32:13.976Z,12.76
2022-10-23T17:34:38.846Z,12.81
2022-10-23T17:37:03.212Z,12.98
2022-10-23T17:39:33.431Z,13.18
2022-10-23T17:42:01.334Z,13.35
2022-10-23T17:44:26.597Z,13.36
2022-10-23T17:46:55.389Z,13.29
2022-10-23T17:49:20.892Z,13.17
2022-10-23T17:51:47.225Z,13.06
2022-10-23T17:54:12.852Z,13.02
2022-10-23T17:55:22.530Z,12.88
2022-10-23T17:57:49.786Z,12.88
2022-10-23T18:00:17.131Z,12.87
2022-10-23T18:02:43.360Z,12.86
2022-10-23T18:05:10.847Z,13.01
2022-10-23T18:07:40.955Z,13.21
2022-10-23T18:10:07.757Z,13.36
2022-10-23T18:12:55.511Z,13.13
2022-10-23T18:15:21.737Z,13.22
2022-10-23T18:17:46.735Z,13.10
2022-10-23T18:20:14.911Z,13.07
2022-10-23T18:22:41.194Z,13.01
2022-10-23T18:25:07.923Z,13.07
2022-10-23T18:27:40.886Z,13.25
2022-10-23T18:30:10.101Z,13.49
2022-10-23T18:32:37.141Z,13.52
2022-10-23T18:35:02.345Z,13.42
2022-10-23T18:37:39.010Z,13.33
2022-10-23T18:39:59.527Z,13.19
2022-10-23T18:42:23.586Z,13.15
2022-10-23T18:43:43.198Z,13.05
2022-10-23T18:47:29.062Z,13.12
2022-10-23T18:49:53.593Z,13.14
2022-10-23T18:52:18.181Z,13.36
2022-10-23T18:54:45.683Z,13.55
2022-10-23T18:57:09.961Z,13.71
2022-10-23T18:59:34.313Z,13.70
2022-10-23T19:01:58.956Z,13.60
2022-10-23T19:04:25.643Z,13.55
2022-10-23T19:06:50.805Z,13.46
2022-10-23T19:09:16.652Z,13.39
2022-10-23T19:11:45.035Z,13.25
2022-10-23T19:14:09.934Z,13.23
2022-10-23T19:16:37.216Z,13.23
2022-10-23T19:19:27.927Z,13.27
2022-10-23T19:21:54.546Z,13.45
2022-10-23T19:24:29.785Z,13.64
2022-10-23T19:26:59.095Z,13.71
2022-10-23T19:29:26.299Z,13.61
2022-10-23T19:31:51.338Z,13.48
2022-10-23T19:34:19.342Z,13.41
2022-10-23T19:36:44.704Z,13.29
2022-10-23T19:39:09.319Z,13.25
2022-10-23T19:41:35.930Z,13.14
2022-10-23T19:43:59.849Z,13.14
2022-10-23T19:46:30.205Z,13.27
2022-10-23T19:48:54.905Z,13.46
2022-10-23T19:51:22.298Z,13.59
2022-10-23T19:53:46.539Z,13.59
2022-10-23T19:56:13.388Z,13.53
2022-10-23T19:58:37.627Z,13.48
2022-10-23T20:01:14.864Z,13.33
2022-10-23T20:03:42.262Z,13.28
2022-10-23T20:06:29.417Z,13.19
2022-10-23T20:08:54.354Z,13.19
2022-10-23T20:11:24.091Z,13.29
2022-10-23T20:13:50.534Z,13.43
2022-10-23T20:16:20.948Z,13.56
2022-10-23T20:18:45.083Z,13.63
2022-10-23T20:21:09.420Z,13.50
2022-10-23T20:23:34.275Z,13.39
2022-10-23T20:26:06.828Z,13.35
2022-10-23T20:28:33.421Z,13.27
2022-10-23T20:30:58.321Z,13.21
2022-10-23T20:32:07.546Z,13.11
2022-10-23T20:34:39.232Z,13.35
2022-10-23T20:37:03.580Z,13.48
2022-10-23T20:39:29.037Z,13.72
2022-10-23T20:41:54.938Z,13.78
2022-10-23T20:44:19.305Z,13.70
2022-10-23T20:46:44.952Z,13.64
2022-10-23T20:49:09.242Z,13.52
2022-10-23T20:50:19.435Z,13.37
2022-10-23T20:52:42.944Z,13.42
2022-10-23T20:55:11.288Z,13.35
2022-10-23T20:57:41.948Z,13.42
2022-10-23T21:00:08.242Z,13.54
2022-10-23T21:02:33.311Z,13.68
2022-10-23T21:04:58.293Z,13.54
2022-10-23T21:07:28.262Z,13.54
2022-10-23T21:09:53.666Z,13.48
2022-10-23T21:12:18.201Z,13.55
2022-10-23T21:14:45.295Z,13.70
2022-10-23T21:15:55.992Z,13.62
2022-10-23T21:18:34.199Z,13.90
2022-10-23T21:20:59.229Z,13.75
2022-10-23T21:23:23.242Z,13.68
2022-10-23T21:28:13.871Z,13.53
2022-10-23T21:30:41.081Z,13.56
2022-10-23T21:33:11.177Z,13.69
2022-10-23T21:35:37.831Z,13.82
2022-10-23T21:38:22.670Z,13.86
2022-10-23T21:40:46.469Z,13.70
2022-10-23T21:43:11.296Z,13.58
2022-10-23T21:44:20.898Z,13.46
2022-10-23T21:46:48.083Z,13.49
2022-10-23T21:49:11.636Z,13.52
2022-10-23T21:51:37.980Z,13.70
2022-10-23T21:54:11.415Z,13.87
2022-10-23T21:57:55.885Z,14.05
2022-10-23T22:00:26.049Z,14.04
2022-10-23T22:02:50.504Z,13.91
2022-10-23T22:05:15.092Z,13.74
2022-10-23T22:07:47.616Z,13.69
2022-10-23T22:08:58.457Z,13.57
2022-10-23T22:11:25.712Z,13.66
2022-10-23T22:13:50.245Z,13.78
2022-10-23T22:16:15.524Z,13.93
2022-10-23T22:18:41.336Z,14.11
2022-10-23T22:21:08.508Z,14.14
2022-10-23T22:23:33.495Z,14.04
2022-10-23T22:25:59.688Z,13.93
2022-10-23T22:28:24.988Z,13.74
2022-10-23T22:30:50.202Z,13.64
2022-10-23T22:33:16.404Z,13.54
2022-10-23T22:35:46.336Z,13.46
2022-10-23T22:38:12.363Z,13.58
2022-10-23T22:40:41.899Z,13.73
2022-10-23T22:43:06.144Z,13.87
2022-10-23T22:45:31.098Z,13.96
2022-10-23T22:47:57.130Z,14.01
2022-10-23T22:50:22.368Z,13.92
2022-10-23T22:52:46.638Z,13.85
2022-10-23T22:55:14.652Z,14.00
2022-10-23T22:57:47.436Z,14.06
2022-10-23T23:00:16.179Z,13.76
2022-10-23T23:02:45.592Z,13.66
2022-10-23T23:05:12.497Z,13.71
2022-10-23T23:07:38.828Z,13.84
2022-10-23T23:10:06.168Z,13.98
2022-10-23T23:12:36.322Z,14.09
2022-10-23T23:15:04.720Z,14.25
2022-10-23T23:17:44.584Z,14.25
2022-10-23T23:20:10.802Z,14.06
2022-10-23T23:22:35.464Z,13.93
2022-10-23T23:25:01.285Z,13.86
2022-10-23T23:27:25.035Z,13.85
2022-10-23T23:29:48.894Z,14.00
2022-10-23T23:32:27.820Z,14.12
2022-10-23T23:34:53.847Z,14.19
2022-10-23T23:37:23.033Z,14.22
2022-10-23T23:39:47.525Z,14.15
2022-10-23T23:42:12.286Z,13.97
2022-10-23T23:44:41.942Z,13.87
2022-10-23T23:47:03.475Z,13.82
2022-10-23T23:49:48.627Z,13.93
2022-10-23T23:52:13.234Z,14.06
2022-10-23T23:54:37.929Z,14.19
2022-10-23T23:57:03.406Z,14.28
2022-10-23T23:59:29.662Z,14.23
